Terminal Aerodrome Forecast
Issued by NWS Melbourne, FL

Home | Current Version | Previous Version | Text Only | Print | Product List | Glossary On
Versions: 1 2 3 4 5 6 7 8 9 10 11 12
400
FTUS42 KMLB 292336
TAFMLB
TAF
KMLB 292336Z 3000/3024 12005KT P6SM VCTS FEW040CB BKN250
     FM300200 00000KT P6SM FEW025 SCT250
     FM301400 27006KT P6SM SCT025
     FM301700 08008KT P6SM VCTS SCT040CB BKN250=

USA.gov is the U.S. government's official web portal to all federal, state and local government web resources and services.